sensor_id;sensor_type;location;lat;lon;timestamp;pressure;altitude;pressure_sealevel;temperature;humidity
56084;BME280;41958;52.416;13.428;2022-07-17T00:02:07;101946.06;;;12.53;73.05
56084;BME280;41958;52.416;13.428;2022-07-17T00:04:32;101945.88;;;12.58;72.67
56084;BME280;41958;52.416;13.428;2022-07-17T00:06:57;101950.34;;;12.50;73.12
56084;BME280;41958;52.416;13.428;2022-07-17T00:09:22;101948.06;;;12.43;73.44
56084;BME280;41958;52.416;13.428;2022-07-17T00:11:48;101956.31;;;12.40;74.21
56084;BME280;41958;52.416;13.428;2022-07-17T00:14:13;101953.19;;;12.32;74.09
56084;BME280;41958;52.416;13.428;2022-07-17T00:16:38;101953.06;;;12.29;74.27
56084;BME280;41958;52.416;13.428;2022-07-17T00:19:03;101963.59;;;12.23;74.66
56084;BME280;41958;52.416;13.428;2022-07-17T00:21:29;101955.69;;;12.17;74.75
56084;BME280;41958;52.416;13.428;2022-07-17T00:23:54;101958.16;;;12.09;75.59
56084;BME280;41958;52.416;13.428;2022-07-17T00:26:19;101962.13;;;12.00;76.48
56084;BME280;41958;52.416;13.428;2022-07-17T00:28:44;101959.66;;;11.98;76.45
56084;BME280;41958;52.416;13.428;2022-07-17T00:31:10;101964.41;;;11.89;77.08
56084;BME280;41958;52.416;13.428;2022-07-17T00:33:35;101958.94;;;11.84;77.59
56084;BME280;41958;52.416;13.428;2022-07-17T00:36:00;101962.25;;;11.77;77.75
56084;BME280;41958;52.416;13.428;2022-07-17T00:38:26;101969.97;;;11.71;77.91
56084;BME280;41958;52.416;13.428;2022-07-17T00:40:55;101956.47;;;11.64;78.65
56084;BME280;41958;52.416;13.428;2022-07-17T00:43:22;101958.28;;;11.60;78.57
56084;BME280;41958;52.416;13.428;2022-07-17T00:45:55;101960.88;;;11.57;78.80
56084;BME280;41958;52.416;13.428;2022-07-17T00:48:20;101953.97;;;11.54;78.76
56084;BME280;41958;52.416;13.428;2022-07-17T00:50:46;101956.75;;;11.54;79.62
56084;BME280;41958;52.416;13.428;2022-07-17T00:53:11;101953.81;;;11.51;79.97
56084;BME280;41958;52.416;13.428;2022-07-17T00:55:36;101954.78;;;11.46;79.47
56084;BME280;41958;52.416;13.428;2022-07-17T00:58:04;101958.25;;;11.43;80.36
56084;BME280;41958;52.416;13.428;2022-07-17T01:00:31;101957.25;;;11.39;80.97
56084;BME280;41958;52.416;13.428;2022-07-17T01:02:57;101950.81;;;11.38;79.78
56084;BME280;41958;52.416;13.428;2022-07-17T01:05:24;101949.97;;;11.29;80.33
56084;BME280;41958;52.416;13.428;2022-07-17T01:07:50;101950.63;;;11.26;80.51
56084;BME280;41958;52.416;13.428;2022-07-17T01:10:16;101948.97;;;11.25;81.00
56084;BME280;41958;52.416;13.428;2022-07-17T01:12:43;101947.13;;;11.20;80.56
56084;BME280;41958;52.416;13.428;2022-07-17T01:15:10;101957.50;;;11.20;80.99
56084;BME280;41958;52.416;13.428;2022-07-17T01:17:36;101947.59;;;11.13;81.78
56084;BME280;41958;52.416;13.428;2022-07-17T01:20:04;101952.41;;;11.13;81.89
56084;BME280;41958;52.416;13.428;2022-07-17T01:22:30;101950.56;;;11.08;81.95
56084;BME280;41958;52.416;13.428;2022-07-17T01:24:55;101950.56;;;11.08;81.28
56084;BME280;41958;52.416;13.428;2022-07-17T01:27:20;101949.56;;;11.04;81.75
56084;BME280;41958;52.416;13.428;2022-07-17T01:29:45;101950.19;;;11.01;81.65
56084;BME280;41958;52.416;13.428;2022-07-17T01:32:11;101950.72;;;11.03;81.78
56084;BME280;41958;52.416;13.428;2022-07-17T01:34:36;101948.38;;;10.96;82.26
56084;BME280;41958;52.416;13.428;2022-07-17T01:37:02;101957.25;;;10.90;82.20
56084;BME280;41958;52.416;13.428;2022-07-17T01:39:27;101957.06;;;10.86;83.13
56084;BME280;41958;52.416;13.428;2022-07-17T01:42:11;101951.25;;;10.74;82.67
56084;BME280;41958;52.416;13.428;2022-07-17T01:44:36;101950.56;;;10.68;83.57
56084;BME280;41958;52.416;13.428;2022-07-17T01:47:03;101947.91;;;10.63;84.19
56084;BME280;41958;52.416;13.428;2022-07-17T01:49:28;101948.66;;;10.55;83.96
56084;BME280;41958;52.416;13.428;2022-07-17T01:51:53;101949.81;;;10.54;84.59
56084;BME280;41958;52.416;13.428;2022-07-17T01:54:19;101949.97;;;10.49;84.30
56084;BME280;41958;52.416;13.428;2022-07-17T01:56:44;101946.78;;;10.41;84.38
56084;BME280;41958;52.416;13.428;2022-07-17T01:59:09;101946.63;;;10.38;85.26
56084;BME280;41958;52.416;13.428;2022-07-17T02:01:34;101939.25;;;10.28;85.57
56084;BME280;41958;52.416;13.428;2022-07-17T02:04:00;101948.41;;;10.20;85.76
56084;BME280;41958;52.416;13.428;2022-07-17T02:06:25;101941.63;;;10.12;85.96
56084;BME280;41958;52.416;13.428;2022-07-17T02:08:50;101953.75;;;10.07;86.70
56084;BME280;41958;52.416;13.428;2022-07-17T02:11:16;101941.06;;;10.01;87.69
56084;BME280;41958;52.416;13.428;2022-07-17T02:13:42;101947.91;;;9.95;87.52
56084;BME280;41958;52.416;13.428;2022-07-17T02:16:07;101954.72;;;9.89;88.10
56084;BME280;41958;52.416;13.428;2022-07-17T02:18:32;101958.16;;;9.86;88.42
56084;BME280;41958;52.416;13.428;2022-07-17T02:20:57;101948.28;;;9.79;89.04
56084;BME280;41958;52.416;13.428;2022-07-17T02:23:22;101949.72;;;9.77;89.61
56084;BME280;41958;52.416;13.428;2022-07-17T02:25:48;101944.03;;;9.68;89.41
56084;BME280;41958;52.416;13.428;2022-07-17T02:28:13;101947.25;;;9.61;89.76
56084;BME280;41958;52.416;13.428;2022-07-17T02:30:38;101945.44;;;9.57;90.38
56084;BME280;41958;52.416;13.428;2022-07-17T02:33:04;101948.00;;;9.53;91.23
56084;BME280;41958;52.416;13.428;2022-07-17T02:35:29;101946.97;;;9.49;91.54
56084;BME280;41958;52.416;13.428;2022-07-17T02:37:54;101947.31;;;9.48;92.02
56084;BME280;41958;52.416;13.428;2022-07-17T02:40:19;101935.44;;;9.42;91.63
56084;BME280;41958;52.416;13.428;2022-07-17T02:42:45;101942.78;;;9.38;92.14
56084;BME280;41958;52.416;13.428;2022-07-17T02:45:10;101943.50;;;9.30;92.45
56084;BME280;41958;52.416;13.428;2022-07-17T02:47:36;101951.34;;;9.27;92.49
56084;BME280;41958;52.416;13.428;2022-07-17T02:50:04;101960.66;;;9.23;92.95
56084;BME280;41958;52.416;13.428;2022-07-17T02:52:30;101955.19;;;9.18;93.41
56084;BME280;41958;52.416;13.428;2022-07-17T02:54:55;101967.78;;;9.15;93.77
56084;BME280;41958;52.416;13.428;2022-07-17T02:57:20;101965.63;;;9.12;94.44
56084;BME280;41958;52.416;13.428;2022-07-17T02:59:46;101973.19;;;9.11;94.13
56084;BME280;41958;52.416;13.428;2022-07-17T03:02:12;101980.19;;;9.09;94.73
56084;BME280;41958;52.416;13.428;2022-07-17T03:04:37;101962.72;;;9.03;94.94
56084;BME280;41958;52.416;13.428;2022-07-17T03:07:02;101967.47;;;9.03;94.64
56084;BME280;41958;52.416;13.428;2022-07-17T03:09:27;101976.47;;;9.00;95.01
56084;BME280;41958;52.416;13.428;2022-07-17T03:11:53;101973.47;;;8.96;95.36
56084;BME280;41958;52.416;13.428;2022-07-17T03:14:18;101977.69;;;8.93;95.68
56084;BME280;41958;52.416;13.428;2022-07-17T03:16:43;101971.59;;;8.91;95.59
56084;BME280;41958;52.416;13.428;2022-07-17T03:19:08;101976.34;;;8.91;96.76
56084;BME280;41958;52.416;13.428;2022-07-17T03:21:34;101971.06;;;8.89;96.51
56084;BME280;41958;52.416;13.428;2022-07-17T03:24:00;101964.69;;;8.89;96.59
56084;BME280;41958;52.416;13.428;2022-07-17T03:26:25;101967.78;;;8.87;96.60
56084;BME280;41958;52.416;13.428;2022-07-17T03:28:50;101975.00;;;8.88;97.10
56084;BME280;41958;52.416;13.428;2022-07-17T03:31:16;101985.31;;;8.88;97.43
56084;BME280;41958;52.416;13.428;2022-07-17T03:33:41;101980.69;;;8.83;97.54
56084;BME280;41958;52.416;13.428;2022-07-17T03:36:06;101989.69;;;8.94;98.69
56084;BME280;41958;52.416;13.428;2022-07-17T03:38:32;101996.38;;;8.93;98.69
56084;BME280;41958;52.416;13.428;2022-07-17T03:40:58;101994.22;;;8.90;98.46
56084;BME280;41958;52.416;13.428;2022-07-17T03:43:23;101996.78;;;8.86;98.28
56084;BME280;41958;52.416;13.428;2022-07-17T03:45:48;101997.09;;;8.85;98.09
56084;BME280;41958;52.416;13.428;2022-07-17T03:48:14;102004.63;;;8.84;98.36
56084;BME280;41958;52.416;13.428;2022-07-17T03:50:39;102011.03;;;8.85;99.11
56084;BME280;41958;52.416;13.428;2022-07-17T03:53:04;102009.59;;;8.87;98.74
56084;BME280;41958;52.416;13.428;2022-07-17T03:55:29;102012.06;;;8.89;99.20
56084;BME280;41958;52.416;13.428;2022-07-17T03:57:55;102018.06;;;8.96;100.00
56084;BME280;41958;52.416;13.428;2022-07-17T04:00:20;102019.94;;;9.01;100.00
56084;BME280;41958;52.416;13.428;2022-07-17T04:02:45;102020.16;;;9.04;100.00
56084;BME280;41958;52.416;13.428;2022-07-17T04:05:10;102023.47;;;9.20;100.00
56084;BME280;41958;52.416;13.428;2022-07-17T04:07:40;102033.19;;;9.37;100.00
56084;BME280;41958;52.416;13.428;2022-07-17T04:10:06;102034.94;;;9.47;99.50
56084;BME280;41958;52.416;13.428;2022-07-17T04:12:32;102036.50;;;9.53;99.58
56084;BME280;41958;52.416;13.428;2022-07-17T04:14:58;102038.88;;;9.59;98.84
56084;BME280;41958;52.416;13.428;2022-07-17T04:17:23;102042.78;;;9.72;97.70
56084;BME280;41958;52.416;13.428;2022-07-17T04:19:49;102044.72;;;9.86;97.53
56084;BME280;41958;52.416;13.428;2022-07-17T04:22:14;102055.03;;;9.99;96.34
56084;BME280;41958;52.416;13.428;2022-07-17T04:24:40;102044.78;;;10.08;95.84
56084;BME280;41958;52.416;13.428;2022-07-17T04:27:05;102036.47;;;10.17;95.18
56084;BME280;41958;52.416;13.428;2022-07-17T04:29:30;102033.75;;;10.26;94.97
56084;BME280;41958;52.416;13.428;2022-07-17T04:31:56;102042.44;;;10.38;94.66
56084;BME280;41958;52.416;13.428;2022-07-17T04:34:21;102037.63;;;10.53;94.24
56084;BME280;41958;52.416;13.428;2022-07-17T04:36:46;102048.59;;;10.72;93.23
56084;BME280;41958;52.416;13.428;2022-07-17T04:39:11;102043.94;;;10.90;92.32
56084;BME280;41958;52.416;13.428;2022-07-17T04:41:37;102049.81;;;11.11;91.55
56084;BME280;41958;52.416;13.428;2022-07-17T04:44:02;102056.19;;;11.34;90.43
56084;BME280;41958;52.416;13.428;2022-07-17T04:46:28;102053.63;;;11.55;88.92
56084;BME280;41958;52.416;13.428;2022-07-17T04:48:53;102064.91;;;11.81;87.90
56084;BME280;41958;52.416;13.428;2022-07-17T04:51:18;102046.84;;;12.05;86.52
56084;BME280;41958;52.416;13.428;2022-07-17T04:53:44;102052.78;;;12.21;85.21
56084;BME280;41958;52.416;13.428;2022-07-17T04:56:09;102053.44;;;12.44;84.20
56084;BME280;41958;52.416;13.428;2022-07-17T04:58:34;102055.41;;;12.61;82.66
56084;BME280;41958;52.416;13.428;2022-07-17T05:00:59;102058.84;;;12.76;82.04
56084;BME280;41958;52.416;13.428;2022-07-17T05:03:25;102061.66;;;12.85;81.56
56084;BME280;41958;52.416;13.428;2022-07-17T05:05:50;102062.78;;;13.01;80.64
56084;BME280;41958;52.416;13.428;2022-07-17T05:08:15;102058.28;;;13.09;80.20
56084;BME280;41958;52.416;13.428;2022-07-17T05:10:41;102054.28;;;13.36;79.40
56084;BME280;41958;52.416;13.428;2022-07-17T05:13:06;102053.88;;;13.46;78.56
56084;BME280;41958;52.416;13.428;2022-07-17T05:15:32;102057.31;;;13.52;77.90
56084;BME280;41958;52.416;13.428;2022-07-17T05:17:57;102056.41;;;13.69;76.90
56084;BME280;41958;52.416;13.428;2022-07-17T05:20:22;102056.00;;;13.79;77.17
56084;BME280;41958;52.416;13.428;2022-07-17T05:22:47;102051.34;;;13.83;77.30
56084;BME280;41958;52.416;13.428;2022-07-17T05:25:13;102056.38;;;14.20;75.31
56084;BME280;41958;52.416;13.428;2022-07-17T05:27:38;102060.50;;;14.23;75.23
56084;BME280;41958;52.416;13.428;2022-07-17T05:30:04;102057.56;;;14.19;74.78
56084;BME280;41958;52.416;13.428;2022-07-17T05:32:29;102062.03;;;14.41;74.24
56084;BME280;41958;52.416;13.428;2022-07-17T05:34:54;102057.53;;;14.61;72.97
56084;BME280;41958;52.416;13.428;2022-07-17T05:37:20;102059.47;;;14.70;72.08
56084;BME280;41958;52.416;13.428;2022-07-17T05:39:45;102063.34;;;14.65;72.60
56084;BME280;41958;52.416;13.428;2022-07-17T05:42:10;102070.44;;;14.83;72.41
56084;BME280;41958;52.416;13.428;2022-07-17T05:44:36;102075.84;;;14.89;70.80
56084;BME280;41958;52.416;13.428;2022-07-17T05:47:01;102074.16;;;15.09;70.03
56084;BME280;41958;52.416;13.428;2022-07-17T05:49:26;102075.84;;;14.89;70.39
56084;BME280;41958;52.416;13.428;2022-07-17T05:51:51;102084.81;;;15.03;70.50
56084;BME280;41958;52.416;13.428;2022-07-17T05:54:17;102087.38;;;15.08;69.38
56084;BME280;41958;52.416;13.428;2022-07-17T05:56:42;102083.66;;;15.16;68.60
56084;BME280;41958;52.416;13.428;2022-07-17T05:59:07;102083.00;;;15.44;67.68
56084;BME280;41958;52.416;13.428;2022-07-17T06:01:33;102092.16;;;15.66;66.53
56084;BME280;41958;52.416;13.428;2022-07-17T06:03:58;102086.75;;;15.48;65.92
56084;BME280;41958;52.416;13.428;2022-07-17T06:06:24;102092.53;;;15.52;64.97
56084;BME280;41958;52.416;13.428;2022-07-17T06:08:49;102093.47;;;15.68;63.63
56084;BME280;41958;52.416;13.428;2022-07-17T06:11:14;102109.78;;;15.63;63.77
56084;BME280;41958;52.416;13.428;2022-07-17T06:13:40;102107.06;;;15.66;63.26
56084;BME280;41958;52.416;13.428;2022-07-17T06:16:05;102106.19;;;15.99;62.42
56084;BME280;41958;52.416;13.428;2022-07-17T06:18:30;102108.50;;;15.97;62.02
56084;BME280;41958;52.416;13.428;2022-07-17T06:20:56;102105.59;;;16.06;61.05
56084;BME280;41958;52.416;13.428;2022-07-17T06:23:21;102108.91;;;16.37;60.37
56084;BME280;41958;52.416;13.428;2022-07-17T06:25:46;102106.19;;;16.52;59.55
56084;BME280;41958;52.416;13.428;2022-07-17T06:28:11;102101.47;;;16.57;58.68
56084;BME280;41958;52.416;13.428;2022-07-17T06:30:37;102094.91;;;16.52;57.13
56084;BME280;41958;52.416;13.428;2022-07-17T06:33:03;102099.69;;;16.52;57.12
56084;BME280;41958;52.416;13.428;2022-07-17T06:35:28;102097.66;;;16.24;58.12
56084;BME280;41958;52.416;13.428;2022-07-17T06:37:55;102097.34;;;16.13;59.13
56084;BME280;41958;52.416;13.428;2022-07-17T06:40:21;102100.88;;;16.10;60.11
56084;BME280;41958;52.416;13.428;2022-07-17T06:42:46;102100.19;;;15.89;59.39
56084;BME280;41958;52.416;13.428;2022-07-17T06:45:11;102093.59;;;15.97;58.78
56084;BME280;41958;52.416;13.428;2022-07-17T06:47:37;102100.41;;;16.08;58.80
56084;BME280;41958;52.416;13.428;2022-07-17T06:50:03;102108.16;;;16.24;58.53
56084;BME280;41958;52.416;13.428;2022-07-17T06:52:28;102099.06;;;16.30;58.17
56084;BME280;41958;52.416;13.428;2022-07-17T06:54:53;102107.88;;;16.29;58.50
56084;BME280;41958;52.416;13.428;2022-07-17T06:57:19;102103.94;;;16.05;58.95
56084;BME280;41958;52.416;13.428;2022-07-17T06:59:44;102108.41;;;16.06;58.65
56084;BME280;41958;52.416;13.428;2022-07-17T07:02:09;102107.66;;;16.22;58.39
56084;BME280;41958;52.416;13.428;2022-07-17T07:04:34;102111.28;;;16.22;58.58
56084;BME280;41958;52.416;13.428;2022-07-17T07:06:59;102100.53;;;16.12;58.52
56084;BME280;41958;52.416;13.428;2022-07-17T07:09:25;102097.91;;;16.19;58.91
56084;BME280;41958;52.416;13.428;2022-07-17T07:11:51;102113.31;;;16.09;59.77
56084;BME280;41958;52.416;13.428;2022-07-17T07:14:17;102117.53;;;16.15;59.73
56084;BME280;41958;52.416;13.428;2022-07-17T07:16:43;102115.75;;;16.23;58.90
56084;BME280;41958;52.416;13.428;2022-07-17T07:19:08;102122.56;;;16.22;59.27
56084;BME280;41958;52.416;13.428;2022-07-17T07:21:33;102125.50;;;16.38;58.67
56084;BME280;41958;52.416;13.428;2022-07-17T07:23:58;102119.53;;;16.15;59.15
56084;BME280;41958;52.416;13.428;2022-07-17T07:26:24;102120.09;;;16.33;59.43
56084;BME280;41958;52.416;13.428;2022-07-17T07:28:49;102123.84;;;16.37;59.40
56084;BME280;41958;52.416;13.428;2022-07-17T07:31:15;102134.78;;;16.26;59.77
56084;BME280;41958;52.416;13.428;2022-07-17T07:33:42;102133.25;;;16.41;60.69
56084;BME280;41958;52.416;13.428;2022-07-17T07:36:07;102128.19;;;16.47;60.14
56084;BME280;41958;52.416;13.428;2022-07-17T07:38:32;102130.50;;;16.85;59.58
56084;BME280;41958;52.416;13.428;2022-07-17T07:40:58;102129.03;;;17.32;57.31
56084;BME280;41958;52.416;13.428;2022-07-17T07:43:23;102129.81;;;17.17;58.48
56084;BME280;41958;52.416;13.428;2022-07-17T07:45:49;102117.94;;;17.11;56.92
56084;BME280;41958;52.416;13.428;2022-07-17T07:48:14;102137.47;;;17.16;57.80
56084;BME280;41958;52.416;13.428;2022-07-17T07:50:39;102138.88;;;16.54;57.79
56084;BME280;41958;52.416;13.428;2022-07-17T07:53:05;102140.78;;;16.37;58.18
56084;BME280;41958;52.416;13.428;2022-07-17T07:55:30;102136.94;;;16.29;60.26
56084;BME280;41958;52.416;13.428;2022-07-17T07:58:09;102134.78;;;16.26;60.16
56084;BME280;41958;52.416;13.428;2022-07-17T08:00:36;102139.34;;;16.43;59.94
56084;BME280;41958;52.416;13.428;2022-07-17T08:03:02;102128.78;;;16.40;60.53
56084;BME280;41958;52.416;13.428;2022-07-17T08:05:27;102135.03;;;16.09;61.19
56084;BME280;41958;52.416;13.428;2022-07-17T08:07:53;102141.88;;;16.20;61.11
56084;BME280;41958;52.416;13.428;2022-07-17T08:10:18;102141.38;;;16.18;61.36
56084;BME280;41958;52.416;13.428;2022-07-17T08:12:43;102139.06;;;15.95;61.02
56084;BME280;41958;52.416;13.428;2022-07-17T08:15:09;102146.41;;;16.49;59.81
56084;BME280;41958;52.416;13.428;2022-07-17T08:17:34;102144.28;;;16.87;58.77
56084;BME280;41958;52.416;13.428;2022-07-17T08:19:59;102139.19;;;17.21;58.02
56084;BME280;41958;52.416;13.428;2022-07-17T08:22:25;102142.72;;;17.02;58.67
56084;BME280;41958;52.416;13.428;2022-07-17T08:24:50;102137.91;;;17.02;57.21
56084;BME280;41958;52.416;13.428;2022-07-17T08:27:15;102142.88;;;17.53;55.88
56084;BME280;41958;52.416;13.428;2022-07-17T08:29:44;102139.06;;;17.78;54.53
56084;BME280;41958;52.416;13.428;2022-07-17T08:32:09;102142.53;;;17.71;54.81
56084;BME280;41958;52.416;13.428;2022-07-17T08:34:34;102148.44;;;17.66;54.88
56084;BME280;41958;52.416;13.428;2022-07-17T08:36:59;102138.91;;;17.70;54.73
56084;BME280;41958;52.416;13.428;2022-07-17T08:39:25;102135.16;;;17.98;55.92
56084;BME280;41958;52.416;13.428;2022-07-17T08:41:50;102139.22;;;18.17;54.30
56084;BME280;41958;52.416;13.428;2022-07-17T08:44:16;102146.81;;;18.13;54.17
56084;BME280;41958;52.416;13.428;2022-07-17T08:46:41;102148.09;;;17.99;53.62
56084;BME280;41958;52.416;13.428;2022-07-17T08:49:07;102142.97;;;17.89;54.97
56084;BME280;41958;52.416;13.428;2022-07-17T08:51:33;102128.94;;;17.93;53.42
56084;BME280;41958;52.416;13.428;2022-07-17T08:53:59;102148.63;;;18.05;53.63
56084;BME280;41958;52.416;13.428;2022-07-17T08:56:25;102148.41;;;18.30;51.94
56084;BME280;41958;52.416;13.428;2022-07-17T08:58:51;102149.19;;;18.11;52.06
56084;BME280;41958;52.416;13.428;2022-07-17T09:01:18;102153.09;;;17.90;53.65
56084;BME280;41958;52.416;13.428;2022-07-17T09:03:55;102148.50;;;18.33;52.74
56084;BME280;41958;52.416;13.428;2022-07-17T09:06:21;102141.16;;;18.48;52.78
56084;BME280;41958;52.416;13.428;2022-07-17T09:08:47;102148.88;;;18.51;53.05
56084;BME280;41958;52.416;13.428;2022-07-17T09:11:12;102146.66;;;18.41;52.66
56084;BME280;41958;52.416;13.428;2022-07-17T09:13:44;102144.59;;;18.58;52.71
56084;BME280;41958;52.416;13.428;2022-07-17T09:16:11;102149.69;;;18.68;51.98
56084;BME280;41958;52.416;13.428;2022-07-17T09:18:45;102140.06;;;18.92;50.81
56084;BME280;41958;52.416;13.428;2022-07-17T09:21:17;102140.81;;;18.69;51.58
56084;BME280;41958;52.416;13.428;2022-07-17T09:23:42;102147.19;;;18.11;52.99
56084;BME280;41958;52.416;13.428;2022-07-17T09:26:08;102138.88;;;18.02;54.05
56084;BME280;41958;52.416;13.428;2022-07-17T09:28:44;102140.38;;;18.32;53.10
56084;BME280;41958;52.416;13.428;2022-07-17T09:31:10;102137.06;;;18.10;53.67
56084;BME280;41958;52.416;13.428;2022-07-17T09:33:35;102138.50;;;18.04;54.13
56084;BME280;41958;52.416;13.428;2022-07-17T09:36:08;102143.19;;;18.12;53.23
56084;BME280;41958;52.416;13.428;2022-07-17T09:38:39;102140.13;;;18.21;52.91
56084;BME280;41958;52.416;13.428;2022-07-17T09:41:06;102142.16;;;18.20;52.85
56084;BME280;41958;52.416;13.428;2022-07-17T09:43:53;102145.44;;;18.07;52.96
56084;BME280;41958;52.416;13.428;2022-07-17T09:46:30;102138.03;;;18.18;53.55
56084;BME280;41958;52.416;13.428;2022-07-17T09:49:03;102134.06;;;18.03;54.00
56084;BME280;41958;52.416;13.428;2022-07-17T09:51:36;102141.88;;;17.78;53.85
56084;BME280;41958;52.416;13.428;2022-07-17T09:54:05;102147.94;;;17.92;53.60
56084;BME280;41958;52.416;13.428;2022-07-17T09:56:32;102141.91;;;18.10;53.72
56084;BME280;41958;52.416;13.428;2022-07-17T09:59:02;102154.38;;;18.25;53.78
56084;BME280;41958;52.416;13.428;2022-07-17T10:01:28;102158.13;;;18.13;53.70
56084;BME280;41958;52.416;13.428;2022-07-17T10:03:54;102148.78;;;18.28;54.00
56084;BME280;41958;52.416;13.428;2022-07-17T10:06:24;102153.22;;;18.45;53.16
56084;BME280;41958;52.416;13.428;2022-07-17T10:08:51;102146.78;;;19.03;51.00
56084;BME280;41958;52.416;13.428;2022-07-17T10:11:19;102142.91;;;18.92;51.05
56084;BME280;41958;52.416;13.428;2022-07-17T10:13:46;102151.09;;;18.97;50.43
56084;BME280;41958;52.416;13.428;2022-07-17T10:16:12;102141.97;;;19.27;51.37
56084;BME280;41958;52.416;13.428;2022-07-17T10:18:41;102142.63;;;19.40;50.23
56084;BME280;41958;52.416;13.428;2022-07-17T10:21:12;102143.75;;;19.59;49.49
56084;BME280;41958;52.416;13.428;2022-07-17T10:23:39;102140.69;;;19.25;52.72
56084;BME280;41958;52.416;13.428;2022-07-17T10:26:04;102129.19;;;19.37;50.26
56084;BME280;41958;52.416;13.428;2022-07-17T10:28:43;102132.09;;;19.41;50.06
56084;BME280;41958;52.416;13.428;2022-07-17T10:31:09;102124.03;;;19.89;49.64
56084;BME280;41958;52.416;13.428;2022-07-17T10:33:35;102122.78;;;20.13;48.29
56084;BME280;41958;52.416;13.428;2022-07-17T10:36:00;102119.63;;;20.18;47.62
56084;BME280;41958;52.416;13.428;2022-07-17T10:38:27;102122.56;;;19.99;48.41
56084;BME280;41958;52.416;13.428;2022-07-17T10:41:00;102114.75;;;19.69;48.49
56084;BME280;41958;52.416;13.428;2022-07-17T10:43:25;102118.88;;;19.48;49.20
56084;BME280;41958;52.416;13.428;2022-07-17T10:45:51;102122.00;;;19.43;49.35
56084;BME280;41958;52.416;13.428;2022-07-17T10:48:19;102123.00;;;19.54;48.88
56084;BME280;41958;52.416;13.428;2022-07-17T10:50:53;102121.22;;;19.43;49.61
56084;BME280;41958;52.416;13.428;2022-07-17T10:53:28;102124.91;;;19.24;50.22
56084;BME280;41958;52.416;13.428;2022-07-17T10:56:05;102127.06;;;19.77;50.38
56084;BME280;41958;52.416;13.428;2022-07-17T11:01:07;102117.16;;;19.90;48.41
56084;BME280;41958;52.416;13.428;2022-07-17T11:03:56;102122.84;;;20.47;48.60
56084;BME280;41958;52.416;13.428;2022-07-17T11:09:06;102117.56;;;20.46;47.54
56084;BME280;41958;52.416;13.428;2022-07-17T11:11:50;102116.13;;;20.59;47.33
56084;BME280;41958;52.416;13.428;2022-07-17T11:14:25;102112.34;;;20.21;46.95
56084;BME280;41958;52.416;13.428;2022-07-17T11:17:01;102125.59;;;19.86;47.53
56084;BME280;41958;52.416;13.428;2022-07-17T11:19:36;102119.94;;;19.86;48.45
56084;BME280;41958;52.416;13.428;2022-07-17T11:22:05;102121.50;;;19.84;47.78
56084;BME280;41958;52.416;13.428;2022-07-17T11:24:45;102117.09;;;19.86;47.68
56084;BME280;41958;52.416;13.428;2022-07-17T11:27:18;102109.00;;;20.15;47.13
56084;BME280;41958;52.416;13.428;2022-07-17T11:29:44;102116.91;;;19.76;46.51
56084;BME280;41958;52.416;13.428;2022-07-17T11:32:10;102127.81;;;19.97;47.07
56084;BME280;41958;52.416;13.428;2022-07-17T11:34:35;102118.91;;;19.98;46.69
56084;BME280;41958;52.416;13.428;2022-07-17T11:37:05;102116.88;;;20.26;46.79
56084;BME280;41958;52.416;13.428;2022-07-17T11:39:42;102112.47;;;20.28;46.43
56084;BME280;41958;52.416;13.428;2022-07-17T11:42:12;102123.09;;;20.35;46.75
56084;BME280;41958;52.416;13.428;2022-07-17T11:44:38;102121.06;;;20.35;47.33
56084;BME280;41958;52.416;13.428;2022-07-17T11:47:04;102110.63;;;20.43;47.17
56084;BME280;41958;52.416;13.428;2022-07-17T11:49:32;102118.03;;;20.51;47.09
56084;BME280;41958;52.416;13.428;2022-07-17T11:52:07;102118.34;;;20.73;45.82
56084;BME280;41958;52.416;13.428;2022-07-17T11:54:49;102107.63;;;20.63;46.26
56084;BME280;41958;52.416;13.428;2022-07-17T11:57:16;102108.47;;;20.06;47.09
56084;BME280;41958;52.416;13.428;2022-07-17T11:59:42;102109.19;;;19.76;47.93
56084;BME280;41958;52.416;13.428;2022-07-17T12:02:12;102100.63;;;19.96;47.98
56084;BME280;41958;52.416;13.428;2022-07-17T12:04:54;102100.31;;;20.31;47.62
56084;BME280;41958;52.416;13.428;2022-07-17T12:07:26;102093.25;;;20.18;46.95
56084;BME280;41958;52.416;13.428;2022-07-17T12:09:52;102108.59;;;20.44;46.39
56084;BME280;41958;52.416;13.428;2022-07-17T12:12:23;102106.81;;;20.32;46.35
56084;BME280;41958;52.416;13.428;2022-07-17T12:14:56;102108.69;;;20.51;45.76
56084;BME280;41958;52.416;13.428;2022-07-17T12:17:23;102110.81;;;20.58;45.37
56084;BME280;41958;52.416;13.428;2022-07-17T12:19:50;102104.72;;;20.55;46.11
56084;BME280;41958;52.416;13.428;2022-07-17T12:22:15;102105.72;;;20.70;45.84
56084;BME280;41958;52.416;13.428;2022-07-17T12:24:42;102094.19;;;20.90;44.76
56084;BME280;41958;52.416;13.428;2022-07-17T12:27:11;102093.50;;;21.00;44.10
56084;BME280;41958;52.416;13.428;2022-07-17T12:29:37;102097.47;;;20.96;46.12
56084;BME280;41958;52.416;13.428;2022-07-17T12:32:08;102098.00;;;21.05;44.34
56084;BME280;41958;52.416;13.428;2022-07-17T12:34:36;102100.94;;;21.12;44.21
56084;BME280;41958;52.416;13.428;2022-07-17T12:37:02;102098.47;;;21.11;43.20
56084;BME280;41958;52.416;13.428;2022-07-17T12:39:28;102088.75;;;20.78;44.48
56084;BME280;41958;52.416;13.428;2022-07-17T12:41:53;102084.53;;;20.98;43.97
56084;BME280;41958;52.416;13.428;2022-07-17T12:44:19;102077.97;;;20.91;44.76